createdAt,value
2018-11-02T00:01:25.635Z,11.40
2018-11-02T00:06:30.845Z,11.40
2018-11-02T00:11:36.181Z,11.40
2018-11-02T00:16:41.492Z,11.30
2018-11-02T00:21:46.427Z,11.30
2018-11-02T00:26:51.304Z,11.20
2018-11-02T00:31:56.215Z,11.30
2018-11-02T00:37:01.394Z,11.50
2018-11-02T00:42:07.153Z,11.60
2018-11-02T00:47:12.365Z,11.40
2018-11-02T00:52:17.800Z,11.70
2018-11-02T00:57:22.954Z,11.70
2018-11-02T01:02:27.879Z,11.60
2018-11-02T01:07:33.375Z,11.40
2018-11-02T01:12:39.315Z,11.30
2018-11-02T01:17:45.149Z,11.10
2018-11-02T01:22:50.405Z,11.10
2018-11-02T01:27:55.434Z,11.00
2018-11-02T01:33:00.378Z,11.00
2018-11-02T01:38:05.396Z,11.10
2018-11-02T01:43:10.648Z,11.10
2018-11-02T01:48:16.942Z,11.10
2018-11-02T01:53:21.869Z,11.10
2018-11-02T01:58:26.877Z,11.10
2018-11-02T02:03:31.781Z,11.20
2018-11-02T02:08:36.906Z,11.20
2018-11-02T02:13:42.931Z,11.20
2018-11-02T02:18:49.138Z,11.40
2018-11-02T02:23:56.209Z,11.50
2018-11-02T02:29:07.175Z,11.40
2018-11-02T02:34:15.076Z,11.30
2018-11-02T02:39:23.637Z,11.10
2018-11-02T02:44:29.596Z,10.80
2018-11-02T02:49:34.605Z,10.70
2018-11-02T02:54:39.533Z,10.70
2018-11-02T02:59:44.701Z,10.90
2018-11-02T03:04:49.641Z,11.20
2018-11-02T03:09:54.746Z,11.40
2018-11-02T03:14:59.771Z,11.50
2018-11-02T03:20:05.947Z,11.30
2018-11-02T03:25:11.984Z,11.20
2018-11-02T03:30:16.832Z,11.20
2018-11-02T03:35:21.752Z,11.20
2018-11-02T03:40:26.729Z,11.30
2018-11-02T03:45:31.730Z,11.20
2018-11-02T03:50:36.648Z,11.20
2018-11-02T03:55:42.326Z,11.20
2018-11-02T04:00:48.071Z,11.10
2018-11-02T04:05:52.900Z,10.90
2018-11-02T04:10:57.776Z,10.80
2018-11-02T04:16:02.785Z,10.80
2018-11-02T04:21:07.713Z,10.80
2018-11-02T04:26:12.862Z,10.80
2018-11-02T04:31:17.920Z,10.80
2018-11-02T04:36:22.853Z,11.00
2018-11-02T04:41:27.732Z,11.00
2018-11-02T04:46:32.628Z,11.00
2018-11-02T04:51:37.795Z,11.00
2018-11-02T04:56:43.074Z,11.10
2018-11-02T05:01:48.057Z,11.20
2018-11-02T05:06:52.905Z,11.40
2018-11-02T05:11:58.070Z,11.40
2018-11-02T05:17:02.942Z,11.30
2018-11-02T05:22:07.881Z,11.30
2018-11-02T05:27:13.079Z,11.40
2018-11-02T05:32:17.937Z,11.50
2018-11-02T05:37:22.908Z,11.60
2018-11-02T05:42:27.927Z,11.60
2018-11-02T05:47:32.837Z,11.60
2018-11-02T05:52:37.960Z,11.50
2018-11-02T05:57:43.177Z,11.30
2018-11-02T06:02:48.238Z,11.20
2018-11-02T06:07:53.223Z,11.10
2018-11-02T06:12:58.032Z,11.10
2018-11-02T06:18:02.965Z,11.00
2018-11-02T06:23:07.912Z,10.80
2018-11-02T06:28:13.348Z,10.70
2018-11-02T06:33:18.299Z,10.70
2018-11-02T06:38:23.344Z,10.70
2018-11-02T06:43:28.320Z,10.70
2018-11-02T06:48:33.225Z,10.80
2018-11-02T06:53:38.148Z,10.90
2018-11-02T06:58:43.166Z,11.10
2018-11-02T07:03:48.226Z,11.30
2018-11-02T07:08:53.059Z,11.50
2018-11-02T07:13:58.033Z,11.50
2018-11-02T07:19:03.618Z,11.40
2018-11-02T07:24:08.752Z,11.40
2018-11-02T07:29:14.406Z,11.40
2018-11-02T07:34:19.373Z,11.40
2018-11-02T07:39:24.365Z,11.70
2018-11-02T07:44:29.419Z,11.70
2018-11-02T07:49:35.405Z,11.70
2018-11-02T07:54:40.444Z,11.80
2018-11-02T07:59:45.453Z,11.80
2018-11-02T08:04:50.514Z,11.80
2018-11-02T08:09:55.366Z,11.80
2018-11-02T08:15:00.377Z,11.80
2018-11-02T08:20:05.724Z,11.90
2018-11-02T08:25:11.480Z,12.00
2018-11-02T08:30:18.967Z,12.00
2018-11-02T08:35:24.857Z,12.20
2018-11-02T08:40:29.983Z,12.20
2018-11-02T08:45:34.880Z,12.30
2018-11-02T08:50:39.838Z,12.40
2018-11-02T08:55:44.892Z,12.60
2018-11-02T09:00:52.216Z,12.80
2018-11-02T09:06:00.339Z,12.90
2018-11-02T09:11:05.460Z,13.00
2018-11-02T09:16:10.484Z,13.20
2018-11-02T09:21:15.493Z,13.40
2018-11-02T09:26:20.908Z,13.40
2018-11-02T09:31:26.695Z,13.50
2018-11-02T09:36:32.901Z,13.60
2018-11-02T09:41:44.245Z,13.60
2018-11-02T09:46:49.168Z,13.80
2018-11-02T09:51:57.359Z,13.90
2018-11-02T09:57:02.276Z,13.90
2018-11-02T10:02:09.128Z,13.90
2018-11-02T10:07:14.888Z,13.90
2018-11-02T10:12:20.221Z,13.80
2018-11-02T10:17:25.319Z,13.70
2018-11-02T10:22:30.247Z,13.60
2018-11-02T10:27:35.922Z,13.70
2018-11-02T10:32:41.880Z,13.90
2018-11-02T10:37:48.134Z,14.20
2018-11-02T10:42:55.708Z,14.40
2018-11-02T10:48:01.582Z,14.50
2018-11-02T10:53:06.713Z,14.50
2018-11-02T10:58:11.663Z,14.50
2018-11-02T11:03:16.820Z,14.80
2018-11-02T11:08:22.292Z,15.40
2018-11-02T11:13:27.503Z,16.20
2018-11-02T11:18:32.465Z,16.90
2018-11-02T11:23:37.490Z,17.00
2018-11-02T11:28:42.532Z,17.40
2018-11-02T11:33:47.544Z,18.20
2018-11-02T11:38:52.834Z,18.50
2018-11-02T11:43:57.929Z,18.50
2018-11-02T11:49:03.052Z,18.70
2018-11-02T11:54:07.894Z,19.30
2018-11-02T11:59:13.078Z,19.90
2018-11-02T12:04:18.557Z,19.70
2018-11-02T12:09:23.657Z,19.30
2018-11-02T12:14:28.595Z,19.40
2018-11-02T12:19:33.712Z,19.80
2018-11-02T12:24:38.731Z,20.00
2018-11-02T12:29:43.664Z,20.30
2018-11-02T12:34:51.796Z,20.00
2018-11-02T12:39:59.041Z,19.40
2018-11-02T12:45:03.924Z,19.30
2018-11-02T12:50:14.590Z,19.30
2018-11-02T12:55:21.054Z,19.40
2018-11-02T13:00:27.312Z,19.60
2018-11-02T13:05:32.291Z,19.40
2018-11-02T13:10:38.321Z,19.40
2018-11-02T13:15:43.305Z,19.30
2018-11-02T13:20:49.743Z,19.30
2018-11-02T13:25:55.641Z,19.00
2018-11-02T13:31:00.626Z,19.10
2018-11-02T13:36:06.040Z,18.90
2018-11-02T13:41:10.886Z,19.40
2018-11-02T13:46:15.766Z,21.10
2018-11-02T13:51:21.412Z,23.00
2018-11-02T14:02:37.809Z,21.70
2018-11-02T14:07:42.967Z,22.40
2018-11-02T14:12:48.324Z,24.10
2018-11-02T14:17:53.188Z,24.50
2018-11-02T14:22:59.306Z,23.80
2018-11-02T14:28:04.370Z,24.00
2018-11-02T14:33:09.314Z,23.90
2018-11-02T14:38:14.183Z,24.00
2018-11-02T14:43:19.301Z,23.00
2018-11-02T14:48:24.296Z,23.40
2018-11-02T14:53:29.750Z,23.40
2018-11-02T14:58:34.625Z,23.50
2018-11-02T15:03:41.561Z,23.10
2018-11-02T15:08:46.693Z,23.00
2018-11-02T15:13:51.870Z,23.10
2018-11-02T15:18:57.499Z,22.70
2018-11-02T15:24:03.748Z,22.30
2018-11-02T15:29:08.729Z,21.90
2018-11-02T15:34:13.781Z,21.00
2018-11-02T15:39:19.014Z,20.40
2018-11-02T15:44:24.084Z,19.90
2018-11-02T15:49:29.034Z,20.10
2018-11-02T15:54:34.028Z,20.10
2018-11-02T15:59:38.916Z,19.60
2018-11-02T16:04:43.824Z,18.80
2018-11-02T16:09:49.496Z,17.90
2018-11-02T16:14:54.594Z,17.50
2018-11-02T16:19:59.531Z,16.80
2018-11-02T16:25:05.121Z,16.30
2018-11-02T16:30:10.671Z,16.00
2018-11-02T16:35:15.629Z,15.80
2018-11-02T16:40:20.637Z,15.50
2018-11-02T16:45:26.719Z,15.20
2018-11-02T16:50:31.678Z,15.00
2018-11-02T16:55:36.575Z,14.90
2018-11-02T17:00:41.597Z,14.70
2018-11-02T17:05:46.982Z,14.50
2018-11-02T17:10:52.145Z,14.40
2018-11-02T17:15:57.149Z,14.30
2018-11-02T17:21:02.171Z,14.20
2018-11-02T17:26:07.499Z,14.10
2018-11-02T17:31:12.594Z,14.10
2018-11-02T17:36:17.706Z,14.00
2018-11-02T17:41:23.220Z,14.10
2018-11-02T17:46:28.341Z,13.90
2018-11-02T17:51:33.429Z,13.80
2018-11-02T17:56:38.590Z,13.70
2018-11-02T18:01:43.533Z,13.70
2018-11-02T18:06:48.758Z,13.60
2018-11-02T18:11:54.411Z,13.50
2018-11-02T18:16:59.338Z,13.60
2018-11-02T18:22:04.542Z,13.70
2018-11-02T18:27:09.581Z,13.60
2018-11-02T18:32:14.707Z,13.50
2018-11-02T18:37:19.782Z,13.40
2018-11-02T18:42:24.806Z,13.40
2018-11-02T18:47:34.866Z,13.50
2018-11-02T18:52:40.582Z,13.50
2018-11-02T18:57:47.660Z,13.40
2018-11-02T19:02:52.977Z,13.40
2018-11-02T19:07:58.056Z,13.40
2018-11-02T19:13:03.090Z,13.40
2018-11-02T19:18:09.024Z,13.30
2018-11-02T19:23:14.045Z,13.00
2018-11-02T19:28:19.152Z,12.90
2018-11-02T19:33:24.124Z,12.80
2018-11-02T19:38:29.110Z,12.80
2018-11-02T19:43:34.066Z,12.80
2018-11-02T19:48:39.124Z,12.80
2018-11-02T19:53:44.313Z,12.90
2018-11-02T19:58:49.761Z,13.00
2018-11-02T20:03:55.512Z,13.00
2018-11-02T20:09:00.512Z,13.00
2018-11-02T20:14:06.648Z,13.10
2018-11-02T20:19:11.658Z,13.00
2018-11-02T20:24:17.039Z,13.00
2018-11-02T20:29:21.968Z,13.10
2018-11-02T20:34:27.225Z,13.00
2018-11-02T20:39:32.201Z,13.00
2018-11-02T20:44:37.040Z,13.10
2018-11-02T20:49:42.005Z,13.10
2018-11-02T20:54:47.304Z,13.10
2018-11-02T20:59:52.201Z,13.10
2018-11-02T21:04:57.203Z,13.10
2018-11-02T21:10:02.393Z,12.80
2018-11-02T21:15:10.213Z,12.60
2018-11-02T21:20:16.472Z,12.20
2018-11-02T21:25:21.460Z,11.90
2018-11-02T21:30:27.132Z,11.60
2018-11-02T21:35:32.298Z,11.40
2018-11-02T21:40:37.764Z,11.40
2018-11-02T21:45:42.839Z,11.40
2018-11-02T21:50:47.899Z,11.60
2018-11-02T21:55:52.837Z,11.60
2018-11-02T22:00:57.929Z,11.50
2018-11-02T22:06:03.145Z,11.50
2018-11-02T22:11:08.721Z,11.40
2018-11-02T22:16:13.819Z,11.40
2018-11-02T22:21:18.792Z,11.20
2018-11-02T22:26:23.693Z,11.10
2018-11-02T22:31:28.831Z,11.20
2018-11-02T22:36:33.789Z,11.20
2018-11-02T22:41:39.141Z,11.10
2018-11-02T22:46:44.361Z,11.20
2018-11-02T22:51:49.335Z,11.30
2018-11-02T22:56:54.524Z,11.10
2018-11-02T23:02:09.117Z,11.10
2018-11-02T23:07:15.832Z,11.10
2018-11-02T23:12:22.485Z,11.20
2018-11-02T23:17:28.925Z,11.10
2018-11-02T23:22:34.597Z,11.00
2018-11-02T23:27:43.787Z,11.00
2018-11-02T23:32:56.609Z,11.10
2018-11-02T23:38:05.736Z,11.30
2018-11-02T23:43:12.063Z,11.40
2018-11-02T23:48:18.393Z,11.40
2018-11-02T23:53:23.891Z,11.40
2018-11-02T23:58:28.817Z,11.40
